createdAt,value
2023-01-04T00:01:23.874Z,100254.78
2023-01-04T00:02:57.593Z,100244.19
2023-01-04T00:04:29.773Z,100249.38
2023-01-04T00:06:05.661Z,100256.28
2023-01-04T00:07:38.972Z,100255.41
2023-01-04T00:09:13.914Z,100250.97
2023-01-04T00:10:46.091Z,100249.28
2023-01-04T00:12:19.265Z,100253.59
2023-01-04T00:13:54.117Z,100259.72
2023-01-04T00:15:27.703Z,100260.56
2023-01-04T00:17:00.831Z,100256.19
2023-01-04T00:18:34.044Z,100252.69
2023-01-04T00:20:07.406Z,100257.94
2023-01-04T00:21:40.848Z,100258.84
2023-01-04T00:23:13.258Z,100261.44
2023-01-04T00:24:47.782Z,100258.88
2023-01-04T00:26:22.858Z,100255.41
2023-01-04T00:27:56.366Z,100264.13
2023-01-04T00:29:29.621Z,100268.50
2023-01-04T00:31:04.465Z,100266.72
2023-01-04T00:32:37.699Z,100264.09
2023-01-04T00:34:14.198Z,100277.13
2023-01-04T00:35:46.698Z,100273.56
2023-01-04T00:37:19.976Z,100266.56
2023-01-04T00:39:08.028Z,100270.84
2023-01-04T00:40:43.657Z,100270.00
2023-01-04T00:42:16.788Z,100265.59
2023-01-04T00:43:49.272Z,100269.09
2023-01-04T00:45:22.428Z,100268.25
2023-01-04T00:46:55.854Z,100277.75
2023-01-04T00:48:28.171Z,100271.66
2023-01-04T00:50:01.687Z,100268.09
2023-01-04T00:51:36.693Z,100264.63
2023-01-04T00:53:11.187Z,100270.69
2023-01-04T00:54:44.357Z,100266.28
2023-01-04T00:56:18.009Z,100271.59
2023-01-04T00:57:51.120Z,100269.00
2023-01-04T00:59:24.787Z,100269.88
2023-01-04T01:00:57.913Z,100271.66
2023-01-04T01:02:31.121Z,100276.88
2023-01-04T01:04:05.847Z,100276.88
2023-01-04T01:05:39.693Z,100276.03
2023-01-04T01:07:12.930Z,100272.53
2023-01-04T01:08:46.129Z,100275.13
2023-01-04T01:10:19.314Z,100282.94
2023-01-04T01:11:55.361Z,100279.44
2023-01-04T01:13:27.453Z,100277.72
2023-01-04T01:15:00.964Z,100275.09
2023-01-04T01:18:27.926Z,100275.13
2023-01-04T01:20:01.511Z,100273.44
2023-01-04T01:21:34.720Z,100279.50
2023-01-04T01:23:07.884Z,100283.84
2023-01-04T01:24:41.313Z,100283.75
2023-01-04T01:26:17.068Z,100282.00
2023-01-04T01:27:51.516Z,100293.28
2023-01-04T01:29:25.115Z,100283.69
2023-01-04T01:31:03.811Z,100276.66
2023-01-04T01:32:39.815Z,100280.97
2023-01-04T01:34:12.916Z,100282.63
2023-01-04T01:35:46.155Z,100280.84
2023-01-04T01:37:19.552Z,100292.16
2023-01-04T01:38:52.719Z,100292.16
2023-01-04T01:40:25.816Z,100279.91
2023-01-04T01:41:59.589Z,100267.69
2023-01-04T01:43:52.819Z,100269.47
2023-01-04T01:45:30.044Z,100275.56
2023-01-04T01:47:03.416Z,100274.75
2023-01-04T01:48:36.735Z,100277.31
2023-01-04T01:50:21.786Z,100279.06
2023-01-04T01:51:57.667Z,100273.91
2023-01-04T01:53:33.650Z,100267.81
2023-01-04T01:55:12.185Z,100270.34
2023-01-04T01:56:51.030Z,100273.78
2023-01-04T01:58:29.739Z,100279.00
2023-01-04T02:00:08.602Z,100280.78
2023-01-04T02:01:48.568Z,100286.00
2023-01-04T02:03:25.284Z,100274.69
2023-01-04T02:05:01.103Z,100283.44
2023-01-04T02:06:36.871Z,100277.44
2023-01-04T02:08:12.181Z,100275.81
2023-01-04T02:09:46.406Z,100279.34
2023-01-04T02:11:19.825Z,100283.75
2023-01-04T02:12:53.873Z,100277.72
2023-01-04T02:14:29.962Z,100269.09
2023-01-04T02:16:14.282Z,100278.69
2023-01-04T02:17:55.589Z,100274.34
2023-01-04T02:19:57.907Z,100276.06
2023-01-04T02:21:42.266Z,100272.56
2023-01-04T02:23:36.777Z,100279.56
2023-01-04T02:25:34.376Z,100274.28
2023-01-04T02:27:36.329Z,100275.94
2023-01-04T02:29:44.782Z,100269.81
2023-01-04T02:31:33.321Z,100267.94
2023-01-04T02:33:26.118Z,100277.47
2023-01-04T02:35:08.602Z,100266.09
2023-01-04T02:36:53.908Z,100276.34
2023-01-04T02:38:32.013Z,100264.13
2023-01-04T02:40:11.605Z,100270.16
2023-01-04T02:41:50.860Z,100270.13
2023-01-04T02:43:50.064Z,100268.34
2023-01-04T02:45:29.304Z,100267.56
2023-01-04T02:47:08.130Z,100262.34
2023-01-04T02:49:08.133Z,100262.41
2023-01-04T02:50:51.072Z,100272.84
2023-01-04T02:52:24.959Z,100262.41
2023-01-04T02:54:01.319Z,100269.34
2023-01-04T02:55:48.489Z,100266.69
2023-01-04T02:57:34.951Z,100264.06
2023-01-04T02:59:29.389Z,100262.25
2023-01-04T03:01:30.181Z,100264.81
2023-01-04T03:03:36.159Z,100261.38
2023-01-04T03:05:52.278Z,100250.09
2023-01-04T03:07:30.454Z,100253.50
2023-01-04T03:09:10.249Z,100262.09
2023-01-04T03:10:49.052Z,100255.06
2023-01-04T03:12:32.488Z,100256.81
2023-01-04T03:14:32.368Z,100251.56
2023-01-04T03:16:09.673Z,100256.78
2023-01-04T03:17:47.557Z,100256.78
2023-01-04T03:19:48.941Z,100262.91
2023-01-04T03:21:27.248Z,100262.06
2023-01-04T03:23:21.105Z,100263.88
2023-01-04T03:25:13.450Z,100251.66
2023-01-04T03:27:21.655Z,100252.56
2023-01-04T03:29:14.730Z,100252.50
2023-01-04T03:31:12.265Z,100265.66
2023-01-04T03:33:11.354Z,100256.03
2023-01-04T03:35:03.758Z,100256.13
2023-01-04T03:36:48.114Z,100255.22
2023-01-04T03:38:48.438Z,100263.06
2023-01-04T03:40:45.079Z,100267.41
2023-01-04T03:42:41.972Z,100259.53
2023-01-04T03:44:39.907Z,100259.53
2023-01-04T03:46:36.792Z,100263.91
2023-01-04T03:48:31.658Z,100263.94
2023-01-04T03:50:13.397Z,100260.47
2023-01-04T03:51:48.477Z,100265.75
2023-01-04T03:53:22.235Z,100258.66
2023-01-04T03:54:56.772Z,100272.38
2023-01-04T03:56:37.182Z,100273.97
2023-01-04T03:58:10.788Z,100269.50
2023-01-04T03:59:49.425Z,100272.91
2023-01-04T04:01:25.118Z,100267.59
2023-01-04T04:03:07.350Z,100259.56
2023-01-04T04:04:58.954Z,100265.66
2023-01-04T04:06:50.775Z,100262.84
2023-01-04T04:08:30.358Z,100270.53
2023-01-04T04:10:03.690Z,100275.72
2023-01-04T04:11:36.885Z,100278.31
2023-01-04T04:13:10.007Z,100274.00
2023-01-04T04:14:43.331Z,100273.06
2023-01-04T04:16:16.863Z,100266.13
2023-01-04T04:17:50.365Z,100273.13
2023-01-04T04:19:23.598Z,100283.66
2023-01-04T04:20:58.126Z,100275.03
2023-01-04T04:22:33.103Z,100282.88
2023-01-04T04:24:07.298Z,100284.69
2023-01-04T04:25:39.634Z,100289.09
2023-01-04T04:27:13.266Z,100284.75
2023-01-04T04:28:46.542Z,100292.63
2023-01-04T04:30:19.155Z,100282.97
2023-01-04T04:31:52.538Z,100289.22
2023-01-04T04:33:26.071Z,100287.53
2023-01-04T04:34:59.293Z,100297.97
2023-01-04T04:36:32.721Z,100300.63
2023-01-04T04:38:07.463Z,100297.97
2023-01-04T04:39:40.708Z,100288.41
2023-01-04T04:41:33.527Z,100297.94
2023-01-04T04:43:08.508Z,100290.09
2023-01-04T04:44:41.716Z,100294.31
2023-01-04T04:46:14.905Z,100299.63
2023-01-04T04:47:48.307Z,100292.63
2023-01-04T04:49:21.913Z,100299.53
2023-01-04T04:50:54.127Z,100300.38
2023-01-04T04:52:27.328Z,100292.56
2023-01-04T04:54:02.432Z,100295.13
2023-01-04T04:55:34.759Z,100299.53
2023-01-04T04:57:07.930Z,100291.69
2023-01-04T04:58:41.755Z,100297.78
2023-01-04T05:00:16.211Z,100289.94
2023-01-04T05:01:49.614Z,100292.34
2023-01-04T05:03:22.040Z,100302.78
2023-01-04T05:04:55.451Z,100296.72
2023-01-04T05:06:29.419Z,100303.72
2023-01-04T05:08:02.869Z,100306.47
2023-01-04T05:09:37.335Z,100304.72
2023-01-04T05:11:11.957Z,100314.34
2023-01-04T05:13:02.232Z,100310.06
2023-01-04T05:14:34.585Z,100319.59
2023-01-04T05:16:10.486Z,100310.88
2023-01-04T05:17:43.636Z,100308.91
2023-01-04T05:19:17.180Z,100304.63
2023-01-04T05:20:51.000Z,100304.63
2023-01-04T05:22:23.186Z,100317.69
2023-01-04T05:23:56.547Z,100319.53
2023-01-04T05:25:31.458Z,100326.59
2023-01-04T05:27:03.671Z,100319.72
2023-01-04T05:28:36.971Z,100324.13
2023-01-04T05:30:30.249Z,100322.44
2023-01-04T05:32:02.559Z,100319.03
2023-01-04T05:33:35.796Z,100322.47
2023-01-04T05:35:08.540Z,100327.72
2023-01-04T05:36:41.729Z,100331.31
2023-01-04T05:38:14.391Z,100326.97
2023-01-04T05:39:47.767Z,100333.13
2023-01-04T05:41:39.588Z,100331.41
2023-01-04T05:43:13.820Z,100341.00
2023-01-04T05:44:46.221Z,100331.53
2023-01-04T05:46:19.513Z,100334.16
2023-01-04T05:47:54.131Z,100336.75
2023-01-04T05:49:27.389Z,100343.75
2023-01-04T05:51:00.917Z,100342.06
2023-01-04T05:52:34.065Z,100342.13
2023-01-04T05:54:07.221Z,100346.44
2023-01-04T05:55:41.124Z,100343.75
2023-01-04T05:57:15.505Z,100354.06
2023-01-04T05:58:48.716Z,100347.06
2023-01-04T06:00:21.887Z,100362.72
2023-01-04T06:01:54.720Z,100362.66
2023-01-04T06:03:30.791Z,100360.88
2023-01-04T06:05:04.289Z,100351.34
2023-01-04T06:06:37.475Z,100364.41
2023-01-04T06:08:10.893Z,100359.97
2023-01-04T06:09:44.353Z,100365.28
2023-01-04T06:11:21.329Z,100363.50
2023-01-04T06:12:58.601Z,100360.91
2023-01-04T06:14:30.729Z,100369.66
2023-01-04T06:16:06.439Z,100366.19
2023-01-04T06:17:40.756Z,100370.47
2023-01-04T06:19:13.109Z,100374.84
2023-01-04T06:20:46.241Z,100374.88
2023-01-04T06:22:19.519Z,100381.88
2023-01-04T06:23:52.975Z,100366.22
2023-01-04T06:25:26.153Z,100377.53
2023-01-04T06:26:58.269Z,100374.94
2023-01-04T06:28:37.141Z,100373.25
2023-01-04T06:30:14.091Z,100378.56
2023-01-04T06:31:47.310Z,100387.34
2023-01-04T06:33:20.459Z,100374.38
2023-01-04T06:34:54.213Z,100373.53
2023-01-04T06:36:27.457Z,100385.00
2023-01-04T06:38:00.634Z,100378.06
2023-01-04T06:39:33.869Z,100377.16
2023-01-04T06:41:07.187Z,100371.81
2023-01-04T06:42:46.316Z,100382.31
2023-01-04T06:44:20.899Z,100387.59
2023-01-04T06:45:54.107Z,100393.78
2023-01-04T06:47:27.403Z,100385.94
2023-01-04T06:49:00.908Z,100386.75
2023-01-04T06:50:34.137Z,100391.19
2023-01-04T06:52:07.345Z,100396.50
2023-01-04T06:53:40.529Z,100401.75
2023-01-04T06:55:14.013Z,100406.13
2023-01-04T06:56:47.122Z,100391.41
2023-01-04T06:58:20.511Z,100400.06
2023-01-04T06:59:55.128Z,100387.94
2023-01-04T07:01:28.345Z,100386.28
2023-01-04T07:03:15.297Z,100391.56
2023-01-04T07:04:49.285Z,100381.16
2023-01-04T07:06:22.701Z,100390.69
2023-01-04T07:07:55.823Z,100400.31
2023-01-04T07:09:29.009Z,100396.84
2023-01-04T07:11:02.482Z,100396.88
2023-01-04T07:12:36.371Z,100402.97
2023-01-04T07:14:09.711Z,100402.06
2023-01-04T07:15:44.426Z,100402.84
2023-01-04T07:17:17.587Z,100408.97
2023-01-04T07:18:51.255Z,100403.78
2023-01-04T07:20:24.708Z,100403.03
2023-01-04T07:21:58.918Z,100394.38
2023-01-04T07:23:32.180Z,100402.22
2023-01-04T07:25:06.049Z,100402.31
2023-01-04T07:26:39.556Z,100395.41
2023-01-04T07:28:12.874Z,100404.19
2023-01-04T07:29:45.110Z,100398.06
2023-01-04T07:31:19.855Z,100396.25
2023-01-04T07:32:54.256Z,100399.69
2023-01-04T07:34:28.452Z,100395.34
2023-01-04T07:36:06.725Z,100402.44
2023-01-04T07:37:40.205Z,100397.34
2023-01-04T07:39:13.708Z,100408.75
2023-01-04T07:40:55.936Z,100408.00
2023-01-04T07:42:30.446Z,100397.56
2023-01-04T07:44:03.795Z,100399.28
2023-01-04T07:45:39.763Z,100404.50
2023-01-04T07:47:14.467Z,100419.34
2023-01-04T07:48:47.643Z,100418.53
2023-01-04T07:50:21.079Z,100416.00
2023-01-04T07:51:54.469Z,100416.91
2023-01-04T07:53:27.671Z,100418.53
2023-01-04T07:55:00.805Z,100416.84
2023-01-04T07:56:34.071Z,100412.50
2023-01-04T07:58:07.486Z,100414.25
2023-01-04T07:59:41.552Z,100425.63
2023-01-04T08:01:16.880Z,100413.38
2023-01-04T08:02:51.915Z,100434.28
2023-01-04T08:04:31.069Z,100420.34
2023-01-04T08:06:09.141Z,100418.59
2023-01-04T08:07:42.612Z,100418.59
2023-01-04T08:09:15.874Z,100421.25
2023-01-04T08:10:49.008Z,100422.19
2023-01-04T08:12:22.267Z,100425.72
2023-01-04T08:13:55.653Z,100433.53
2023-01-04T08:15:29.044Z,100429.19
2023-01-04T08:17:02.282Z,100435.38
2023-01-04T08:18:36.779Z,100425.84
2023-01-04T08:20:10.540Z,100422.31
2023-01-04T08:21:43.997Z,100422.34
2023-01-04T08:23:17.549Z,100420.69
2023-01-04T08:24:50.659Z,100425.25
2023-01-04T08:26:24.448Z,100429.78
2023-01-04T08:27:57.834Z,100422.97
2023-01-04T08:29:34.997Z,100423.09
2023-01-04T08:31:12.150Z,100418.84
2023-01-04T08:32:45.374Z,100419.72
2023-01-04T08:34:20.084Z,100417.09
2023-01-04T08:35:53.457Z,100416.25
2023-01-04T08:37:26.585Z,100404.91
2023-01-04T08:39:02.085Z,100412.81
2023-01-04T08:40:58.276Z,100416.31
2023-01-04T08:42:31.882Z,100417.19
2023-01-04T08:44:05.319Z,100419.81
2023-01-04T08:45:38.884Z,100414.53
2023-01-04T08:47:12.083Z,100413.63
2023-01-04T08:48:45.523Z,100412.72
2023-01-04T08:50:20.604Z,100412.59
2023-01-04T08:51:53.915Z,100412.53
2023-01-04T08:53:27.397Z,100403.75
2023-01-04T08:55:00.707Z,100417.72
2023-01-04T08:56:33.869Z,100415.09
2023-01-04T08:58:07.698Z,100401.97
2023-01-04T08:59:42.914Z,100412.50
2023-01-04T09:01:16.269Z,100410.72
2023-01-04T09:02:49.716Z,100392.38
2023-01-04T09:04:23.171Z,100407.25
2023-01-04T09:06:03.743Z,100407.38
2023-01-04T09:07:36.952Z,100398.63
2023-01-04T09:09:10.140Z,100400.34
2023-01-04T09:10:43.594Z,100396.81
2023-01-04T09:12:16.727Z,100395.06
2023-01-04T09:13:50.947Z,100382.78
2023-01-04T09:15:24.233Z,100387.22
2023-01-04T09:16:57.593Z,100392.50
2023-01-04T09:18:32.745Z,100382.00
2023-01-04T09:20:07.115Z,100389.00
2023-01-04T09:21:41.720Z,100383.75
2023-01-04T09:23:15.254Z,100386.34
2023-01-04T09:24:48.745Z,100381.94
2023-01-04T09:26:23.669Z,100375.84
2023-01-04T09:27:58.200Z,100381.09
2023-01-04T09:29:31.871Z,100372.34
2023-01-04T09:31:08.664Z,100365.34
2023-01-04T09:32:41.940Z,100356.56
2023-01-04T09:34:17.476Z,100363.53
2023-01-04T09:35:51.191Z,100352.09
2023-01-04T09:37:29.710Z,100354.66
2023-01-04T09:39:02.926Z,100352.03
2023-01-04T09:40:55.809Z,100354.59
2023-01-04T09:42:37.585Z,100351.09
2023-01-04T09:44:19.011Z,100356.31
2023-01-04T09:45:59.548Z,100353.69
2023-01-04T09:47:40.190Z,100351.91
2023-01-04T09:49:19.822Z,100356.19
2023-01-04T09:50:57.545Z,100352.72
2023-01-04T09:52:41.948Z,100348.31
2023-01-04T09:54:20.764Z,100356.16
2023-01-04T09:55:57.233Z,100346.53
2023-01-04T09:57:34.029Z,100348.28
2023-01-04T09:59:13.469Z,100350.91
2023-01-04T10:00:49.988Z,100349.09
2023-01-04T10:02:30.536Z,100349.09
2023-01-04T10:04:13.113Z,100349.97
2023-01-04T10:05:46.575Z,100345.50
2023-01-04T10:07:25.142Z,100341.06
2023-01-04T10:09:04.450Z,100340.22
2023-01-04T10:10:50.249Z,100343.75
2023-01-04T10:12:40.636Z,100341.06
2023-01-04T10:14:31.458Z,100330.53
2023-01-04T10:16:17.592Z,100328.81
2023-01-04T10:22:43.889Z,100321.13
2023-01-04T10:24:37.952Z,100333.38
2023-01-04T10:26:14.791Z,100336.84
2023-01-04T10:27:55.870Z,100330.63
2023-01-04T10:29:41.172Z,100340.19
2023-01-04T10:31:40.100Z,100327.03
2023-01-04T10:33:15.000Z,100331.28
2023-01-04T10:34:49.065Z,100331.28
2023-01-04T10:36:24.485Z,100333.81
2023-01-04T10:38:00.407Z,100334.66
2023-01-04T10:39:37.081Z,100331.13
2023-01-04T10:41:15.221Z,100329.38
2023-01-04T10:42:57.930Z,100327.53
2023-01-04T10:44:40.081Z,100323.03
2023-01-04T10:46:19.219Z,100321.19
2023-01-04T10:48:02.431Z,100314.94
2023-01-04T10:49:43.160Z,100314.81
2023-01-04T10:51:22.348Z,100318.19
2023-01-04T10:53:01.473Z,100319.88
2023-01-04T10:54:40.815Z,100315.38
2023-01-04T10:56:26.299Z,100319.69
2023-01-04T10:58:05.389Z,100320.44
2023-01-04T10:59:44.555Z,100307.16
2023-01-04T11:01:23.981Z,100307.13
2023-01-04T11:03:08.547Z,100314.81
2023-01-04T11:04:48.117Z,100315.41
2023-01-04T11:06:25.012Z,100312.47
2023-01-04T11:08:02.471Z,100306.81
2023-01-04T11:09:43.659Z,100310.00
2023-01-04T11:11:25.567Z,100305.31
2023-01-04T11:12:59.198Z,100303.34
2023-01-04T11:14:37.247Z,100296.13
2023-01-04T11:16:11.159Z,100297.69
2023-01-04T11:17:45.291Z,100292.25
2023-01-04T11:19:18.672Z,100291.25
2023-01-04T11:20:52.888Z,100299.06
2023-01-04T11:22:30.753Z,100299.00
2023-01-04T11:24:31.013Z,100300.69
2023-01-04T11:26:09.787Z,100300.69
2023-01-04T11:27:48.638Z,100300.63
2023-01-04T11:29:33.188Z,100295.25
2023-01-04T11:31:17.670Z,100294.34
2023-01-04T11:32:59.605Z,100291.63
2023-01-04T11:34:46.918Z,100288.88
2023-01-04T11:36:34.914Z,100291.50
2023-01-04T11:38:13.629Z,100287.81
2023-01-04T11:39:46.878Z,100293.91
2023-01-04T11:41:23.033Z,100284.13
2023-01-04T11:43:13.879Z,100284.13
2023-01-04T11:44:59.856Z,100278.91
2023-01-04T11:46:34.580Z,100282.31
2023-01-04T11:48:14.345Z,100277.84
2023-01-04T11:49:48.685Z,100261.91
2023-01-04T11:51:37.645Z,100262.69
2023-01-04T11:53:25.298Z,100270.59
2023-01-04T11:54:58.902Z,100280.22
2023-01-04T11:56:35.031Z,100271.31
2023-01-04T11:58:11.595Z,100268.81
2023-01-04T11:59:44.804Z,100280.22
2023-01-04T12:01:24.354Z,100271.44
2023-01-04T12:03:12.811Z,100272.34
2023-01-04T12:04:46.146Z,100267.97
2023-01-04T12:06:21.824Z,100269.81
2023-01-04T12:07:55.133Z,100259.31
2023-01-04T12:09:30.994Z,100276.81
2023-01-04T12:11:06.623Z,100270.69
2023-01-04T12:12:41.132Z,100266.38
2023-01-04T12:14:22.996Z,100270.00
2023-01-04T12:16:05.967Z,100270.94
2023-01-04T12:17:49.094Z,100269.19
2023-01-04T12:19:25.969Z,100277.06
2023-01-04T12:20:59.495Z,100273.56
2023-01-04T12:22:36.554Z,100272.59
2023-01-04T12:24:09.817Z,100266.44
2023-01-04T12:25:47.008Z,100275.25
2023-01-04T12:27:20.582Z,100269.13
2023-01-04T12:29:33.865Z,100273.56
2023-01-04T12:31:29.404Z,100273.69
2023-01-04T12:33:38.738Z,100277.19
2023-01-04T12:36:04.229Z,100282.41
2023-01-04T12:37:49.522Z,100283.28
2023-01-04T12:39:42.721Z,100287.69
2023-01-04T12:41:16.129Z,100286.00
2023-01-04T12:43:19.248Z,100286.09
2023-01-04T12:45:16.937Z,100289.63
2023-01-04T12:47:10.831Z,100279.94
2023-01-04T12:49:01.527Z,100287.16
2023-01-04T12:51:37.208Z,100286.28
2023-01-04T12:53:56.106Z,100291.50
2023-01-04T12:55:54.281Z,100282.75
2023-01-04T12:57:37.303Z,100285.53
2023-01-04T12:59:25.313Z,100293.34
2023-01-04T13:01:25.040Z,100281.03
2023-01-04T13:03:27.936Z,100286.34
2023-01-04T13:05:45.414Z,100293.41
2023-01-04T13:07:15.385Z,100290.63
2023-01-04T13:08:50.845Z,100288.78
2023-01-04T13:10:33.718Z,100302.81
2023-01-04T13:12:16.802Z,100303.63
2023-01-04T13:13:57.094Z,100301.94
2023-01-04T13:15:48.446Z,100306.34
2023-01-04T13:17:23.615Z,100301.19
2023-01-04T13:18:58.440Z,100310.78
2023-01-04T13:20:31.856Z,100308.25
2023-01-04T13:22:17.017Z,100306.59
2023-01-04T13:23:52.809Z,100305.78
2023-01-04T13:25:26.409Z,100302.41
2023-01-04T13:27:07.068Z,100305.00
2023-01-04T13:28:40.385Z,100307.72
2023-01-04T13:30:32.768Z,100307.66
2023-01-04T13:32:11.684Z,100307.72
2023-01-04T13:33:47.991Z,100305.97
2023-01-04T13:35:21.916Z,100309.50
2023-01-04T13:37:05.894Z,100308.72
2023-01-04T13:38:41.759Z,100303.47
2023-01-04T13:40:26.839Z,100301.78
2023-01-04T13:42:00.708Z,100316.72
2023-01-04T13:43:55.612Z,100321.19
2023-01-04T13:45:46.668Z,100312.41
2023-01-04T13:47:20.251Z,100318.59
2023-01-04T13:48:59.425Z,100328.34
2023-01-04T13:50:40.163Z,100321.31
2023-01-04T13:54:23.963Z,100326.59
2023-01-04T13:55:59.298Z,100328.31
2023-01-04T13:57:32.900Z,100330.97
2023-01-04T13:59:06.069Z,100329.31
2023-01-04T14:00:49.742Z,100336.25
2023-01-04T14:02:23.442Z,100334.53
2023-01-04T14:04:00.453Z,100332.84
2023-01-04T14:05:33.879Z,100334.63
2023-01-04T14:07:07.106Z,100327.66
2023-01-04T14:08:43.507Z,100338.38
2023-01-04T14:10:20.763Z,100336.66
2023-01-04T14:12:09.359Z,100345.34
2023-01-04T14:13:47.367Z,100343.50
2023-01-04T14:15:24.150Z,100345.22
2023-01-04T14:17:16.005Z,100346.97
2023-01-04T14:18:49.191Z,100341.75
2023-01-04T14:20:35.351Z,100340.91
2023-01-04T14:22:34.425Z,100347.13
2023-01-04T14:26:36.149Z,100346.28
2023-01-04T14:28:19.624Z,100345.44
2023-01-04T14:29:53.034Z,100335.81
2023-01-04T16:46:44.319Z,100381.97
2023-01-04T16:48:18.732Z,100383.78
2023-01-04T16:49:53.273Z,100380.25
2023-01-04T16:51:28.751Z,100377.66
2023-01-04T16:53:02.392Z,100379.63
2023-01-04T16:54:36.102Z,100382.28
2023-01-04T16:56:11.691Z,100391.03
2023-01-04T16:57:45.652Z,100390.19
2023-01-04T16:59:20.336Z,100391.16
2023-01-04T17:00:55.864Z,100383.19
2023-01-04T17:02:30.639Z,100385.75
2023-01-04T17:04:07.900Z,100384.91
2023-01-04T17:05:41.494Z,100389.22
2023-01-04T17:07:15.412Z,100387.53
2023-01-04T17:08:50.538Z,100385.88
2023-01-04T17:10:27.612Z,100383.25
2023-01-04T17:13:58.331Z,100396.50
2023-01-04T17:15:42.904Z,100391.19
2023-01-04T17:17:17.393Z,100391.19
2023-01-04T17:18:53.232Z,100391.16
2023-01-04T17:20:26.425Z,100392.88
2023-01-04T17:21:59.727Z,100398.16
2023-01-04T17:23:37.018Z,100400.78
2023-01-04T17:25:12.779Z,100390.25
2023-01-04T17:26:47.151Z,100388.53
2023-01-04T17:28:24.825Z,100394.75
2023-01-04T17:29:58.974Z,100396.50
2023-01-04T17:31:34.463Z,100406.09
2023-01-04T17:33:07.883Z,100407.84
2023-01-04T17:34:43.114Z,100406.06
2023-01-04T17:36:18.965Z,100405.19
2023-01-04T17:37:52.649Z,100410.44
2023-01-04T17:39:27.098Z,100401.66
2023-01-04T17:41:08.466Z,100415.81
2023-01-04T17:42:43.847Z,100406.09
2023-01-04T17:44:17.129Z,100407.81
2023-01-04T17:45:50.796Z,100413.97
2023-01-04T17:47:25.351Z,100415.66
2023-01-04T17:49:21.614Z,100410.34
2023-01-04T17:50:54.502Z,100409.50
2023-01-04T17:52:31.257Z,100414.75
2023-01-04T17:54:06.435Z,100410.38
2023-01-04T17:55:40.215Z,100414.69
2023-01-04T17:57:13.853Z,100415.59
2023-01-04T17:58:47.860Z,100404.31
2023-01-04T18:00:23.090Z,100413.88
2023-01-04T18:01:56.676Z,100414.75
2023-01-04T18:03:30.077Z,100407.72
2023-01-04T18:05:04.015Z,100410.25
2023-01-04T18:06:38.697Z,100400.53
2023-01-04T18:08:11.915Z,100402.22
2023-01-04T18:09:45.530Z,100411.91
2023-01-04T18:11:18.938Z,100409.28
2023-01-04T18:12:52.621Z,100404.88
2023-01-04T18:14:26.463Z,100410.13
2023-01-04T18:16:18.895Z,100406.63
2023-01-04T18:17:54.198Z,100401.44
2023-01-04T18:19:29.364Z,100390.91
2023-01-04T18:21:27.370Z,100383.97
2023-01-04T18:23:03.423Z,100397.94
2023-01-04T18:24:38.407Z,100383.91
2023-01-04T18:26:12.736Z,100386.53
2023-01-04T18:27:46.190Z,100383.00
2023-01-04T18:29:19.870Z,100387.38
2023-01-04T18:30:53.310Z,100391.72
2023-01-04T18:32:27.600Z,100390.81
2023-01-04T18:34:01.113Z,100376.75
2023-01-04T18:35:36.596Z,100380.31
2023-01-04T18:37:09.808Z,100387.34
2023-01-04T18:38:44.952Z,100375.91
2023-01-04T18:40:18.537Z,100385.53
2023-01-04T18:41:52.131Z,100377.59
2023-01-04T18:43:25.739Z,100380.25
2023-01-04T18:44:59.336Z,100379.38
2023-01-04T18:46:33.130Z,100373.19
2023-01-04T18:48:11.484Z,100372.28
2023-01-04T18:49:45.280Z,100374.06
2023-01-04T18:51:19.047Z,100372.25
2023-01-04T18:52:52.385Z,100366.94
2023-01-04T18:54:27.241Z,100370.38
2023-01-04T18:56:00.813Z,100373.88
2023-01-04T18:57:34.237Z,100375.66
2023-01-04T18:59:07.701Z,100371.25
2023-01-04T19:00:41.153Z,100374.78
2023-01-04T19:02:18.421Z,100377.44
2023-01-04T19:03:51.871Z,100369.53
2023-01-04T19:05:28.167Z,100385.34
2023-01-04T19:07:01.946Z,100372.94
2023-01-04T19:08:35.690Z,100374.66
2023-01-04T19:10:11.021Z,100374.66
2023-01-04T19:11:45.852Z,100365.91
2023-01-04T19:13:19.193Z,100362.38
2023-01-04T19:14:52.785Z,100371.22
2023-01-04T19:16:29.956Z,100358.03
2023-01-04T19:18:03.617Z,100362.38
2023-01-04T19:19:37.520Z,100367.66
2023-01-04T19:21:11.362Z,100360.59
2023-01-04T19:22:44.631Z,100365.00
2023-01-04T19:24:17.978Z,100369.47
2023-01-04T19:25:53.272Z,100373.16
2023-01-04T19:27:26.590Z,100362.66
2023-01-04T19:28:59.899Z,100364.56
2023-01-04T19:30:33.202Z,100367.25
2023-01-04T19:32:06.928Z,100359.44
2023-01-04T19:33:40.457Z,100355.88
2023-01-04T19:35:13.893Z,100359.34
2023-01-04T19:36:47.466Z,100348.75
2023-01-04T19:38:20.651Z,100346.13
2023-01-04T19:39:53.809Z,100354.06
2023-01-04T19:41:34.283Z,100348.75
2023-01-04T19:43:08.187Z,100347.06
2023-01-04T19:44:41.436Z,100350.53
2023-01-04T19:46:14.970Z,100348.72
2023-01-04T19:47:51.362Z,100352.22
2023-01-04T19:49:24.838Z,100347.75
2023-01-04T19:51:06.709Z,100346.94
2023-01-04T19:52:40.135Z,100346.09
2023-01-04T19:54:13.794Z,100340.81
2023-01-04T19:55:47.219Z,100339.13
2023-01-04T19:57:22.197Z,100342.75
2023-01-04T19:58:55.522Z,100348.88
2023-01-04T20:00:28.901Z,100340.06
2023-01-04T20:02:02.283Z,100341.75
2023-01-04T20:03:35.995Z,100339.13
2023-01-04T20:05:09.950Z,100345.31
2023-01-04T20:06:43.172Z,100333.91
2023-01-04T20:08:16.630Z,100336.53
2023-01-04T20:09:51.123Z,100337.50
2023-01-04T20:11:24.272Z,100329.59
2023-01-04T20:12:58.889Z,100331.34
2023-01-04T20:14:32.490Z,100324.28
2023-01-04T20:16:06.568Z,100327.84
2023-01-04T20:17:39.800Z,100334.88
2023-01-04T20:19:13.005Z,100336.72
2023-01-04T20:20:46.753Z,100320.94
2023-01-04T20:22:20.079Z,100322.72
2023-01-04T20:23:53.347Z,100328.84
2023-01-04T20:25:26.507Z,100321.84
2023-01-04T20:26:59.974Z,100323.63
2023-01-04T20:28:34.785Z,100309.66
2023-01-04T20:30:09.535Z,100328.06
2023-01-04T20:31:45.758Z,100328.06
2023-01-04T20:33:19.444Z,100317.53
2023-01-04T20:34:52.647Z,100315.84
2023-01-04T20:36:29.428Z,100322.97
2023-01-04T20:38:02.524Z,100323.00
2023-01-04T20:39:36.031Z,100315.13
2023-01-04T20:41:12.152Z,100316.06
2023-01-04T20:43:17.072Z,100315.19
2023-01-04T20:44:51.821Z,100317.78
2023-01-04T20:46:28.491Z,100307.25
2023-01-04T20:48:01.946Z,100297.66
2023-01-04T20:49:35.201Z,100303.78
2023-01-04T20:51:09.350Z,100305.56
2023-01-04T20:52:42.555Z,100297.69
2023-01-04T20:54:15.859Z,100289.84
2023-01-04T20:55:49.018Z,100296.84
2023-01-04T20:57:23.192Z,100291.59
2023-01-04T20:58:56.731Z,100297.69
2023-01-04T21:00:31.222Z,100293.31
2023-01-04T21:02:04.770Z,100293.34
2023-01-04T21:03:38.736Z,100289.88
2023-01-04T21:05:12.077Z,100291.69